Time;durP1;ratioP1;P1;durP2;ratioP2;P2;SDS_P1;SDS_P2;PMS_P1;PMS_P2;Temp;Humidity;BMP_temperature;BMP_pressure;BME280_temperature;BME280_humidity;BME280_pressure;Samples;Min_cycle;Max_cycle;Signal;HPM_P1;HPM_P2
2022/08/15 00:01:19;;;;;;;7.72;2.67;;;12.80;73.40;;;;;;6331193;22;19995;-69
2022/08/15 00:03:51;;;;;;;9.48;3.17;;;12.80;73.30;;;;;;6334205;22;19995;-72
2022/08/15 00:06:22;;;;;;;11.57;3.00;;;12.80;73.70;;;;;;6333435;22;20013;-72
2022/08/15 00:08:53;;;;;;;9.00;3.00;;;12.80;73.70;;;;;;6331798;22;20006;-71
2022/08/15 00:11:34;;;;;;;8.32;2.78;;;12.80;73.70;;;;;;6333827;22;20080;-72
2022/08/15 00:14:13;;;;;;;7.10;2.38;;;12.80;73.80;;;;;;6331862;22;20010;-72
2022/08/15 00:16:45;;;;;;;8.57;3.35;;;12.80;73.70;;;;;;6333258;22;20709;-68
2022/08/15 00:19:20;;;;;;;6.05;2.97;;;12.80;73.70;;;;;;6330611;22;20007;-68
2022/08/15 00:21:55;;;;;;;8.65;2.92;;;12.80;73.70;;;;;;6332742;22;20006;-68
2022/08/15 00:24:25;;;;;;;9.95;3.65;;;12.80;73.60;;;;;;6333383;22;20003;-71
2022/08/15 00:26:52;;;;;;;10.82;3.17;;;12.70;73.50;;;;;;6332194;22;20010;-68
2022/08/15 00:29:21;;;;;;;13.15;3.88;;;12.70;73.40;;;;;;6333946;22;20003;-68
2022/08/15 00:31:53;;;;;;;10.32;2.63;;;12.70;73.50;;;;;;6332538;22;19999;-68
2022/08/15 00:34:23;;;;;;;13.00;4.05;;;12.70;73.80;;;;;;6333802;22;20052;-71
2022/08/15 00:36:50;;;;;;;11.20;4.63;;;12.70;73.70;;;;;;6330347;22;19998;-72
2022/08/15 00:39:19;;;;;;;6.93;3.03;;;12.70;73.80;;;;;;6332356;22;19991;-71
2022/08/15 00:41:48;;;;;;;9.02;3.75;;;12.70;73.80;;;;;;6333610;22;20042;-67
2022/08/15 00:44:24;;;;;;;6.53;3.67;;;12.70;73.70;;;;;;6333250;22;20005;-72
2022/08/15 00:46:57;;;;;;;8.32;2.80;;;12.70;73.80;;;;;;6332988;22;20308;-71
2022/08/15 00:49:37;;;;;;;7.00;3.05;;;12.60;73.70;;;;;;6331540;22;20592;-71
2022/08/15 00:52:19;;;;;;;10.98;3.22;;;12.60;73.60;;;;;;6332172;22;20053;-72
2022/08/15 00:55:04;;;;;;;8.90;3.13;;;12.60;73.70;;;;;;6333646;22;20007;-68
2022/08/15 00:57:37;;;;;;;9.90;3.08;;;12.60;73.70;;;;;;6331468;22;20006;-68
2022/08/15 01:00:18;;;;;;;7.30;3.13;;;12.60;74.50;;;;;;6331509;22;20086;-71
2022/08/15 01:03:10;;;;;;;10.55;3.15;;;12.50;73.70;;;;;;6332364;22;20487;-70
2022/08/15 01:05:37;;;;;;;13.27;2.95;;;12.50;73.70;;;;;;6332655;22;20047;-69
2022/08/15 01:08:04;;;;;;;7.47;2.97;;;12.50;73.60;;;;;;6333383;22;20382;-68
2022/08/15 01:10:31;;;;;;;10.82;3.65;;;12.40;73.80;;;;;;6331898;22;19999;-69
2022/08/15 01:12:57;;;;;;;6.57;3.13;;;12.50;74.00;;;;;;6332780;22;20018;-69
2022/08/15 01:15:25;;;;;;;8.70;3.90;;;12.50;74.00;;;;;;6332239;22;20321;-69
2022/08/15 01:17:52;;;;;;;10.00;4.43;;;12.50;74.00;;;;;;6332908;22;20052;-69
2022/08/15 01:20:28;;;;;;;11.82;3.03;;;12.40;73.90;;;;;;6332147;22;20093;-71
2022/08/15 01:23:04;;;;;;;18.23;4.15;;;12.40;73.90;;;;;;6332159;22;20006;-68
2022/08/15 01:25:42;;;;;;;8.57;3.95;;;12.40;74.10;;;;;;6333284;22;20086;-70
2022/08/15 01:28:19;;;;;;;7.25;4.40;;;12.40;74.00;;;;;;6331088;22;20078;-72
2022/08/15 01:30:51;;;;;;;14.18;5.22;;;12.40;73.80;;;;;;6332980;22;20002;-69
2022/08/15 01:33:19;;;;;;;14.57;5.25;;;12.40;73.80;;;;;;6331611;22;20011;-68
2022/08/15 01:35:48;;;;;;;11.07;4.30;;;12.40;73.60;;;;;;6333031;22;19995;-69
2022/08/15 01:38:38;;;;;;;12.57;3.85;;;12.40;73.60;;;;;;6332384;22;20026;-70
2022/08/15 01:41:12;;;;;;;11.27;4.43;;;12.40;73.60;;;;;;6331873;22;20051;-72
2022/08/15 01:43:59;;;;;;;8.70;4.50;;;12.40;73.60;;;;;;6333331;22;20002;-69
2022/08/15 01:46:31;;;;;;;11.23;4.07;;;12.30;73.60;;;;;;6332347;22;20006;-68
2022/08/15 01:49:10;;;;;;;11.77;5.00;;;12.30;73.60;;;;;;6332441;22;20089;-72
2022/08/15 01:51:36;;;;;;;15.45;4.47;;;12.30;73.60;;;;;;6331844;22;20007;-68
2022/08/15 01:54:13;;;;;;;11.02;4.97;;;12.30;73.50;;;;;;6331458;22;20010;-68
2022/08/15 01:56:45;;;;;;;9.35;5.18;;;12.30;73.60;;;;;;6332721;22;20006;-68
2022/08/15 01:59:21;;;;;;;8.55;4.80;;;12.30;73.80;;;;;;6332865;22;20003;-69
2022/08/15 02:02:02;;;;;;;6.82;5.03;;;12.30;73.80;;;;;;6331595;22;19998;-70
2022/08/15 02:04:32;;;;;;;14.80;4.10;;;12.30;73.70;;;;;;6333268;22;20438;-70
2022/08/15 02:07:03;;;;;;;10.65;4.72;;;12.30;73.70;;;;;;6331129;22;20022;-69
2022/08/15 02:09:31;;;;;;;13.02;4.50;;;12.30;73.80;;;;;;6333503;22;20026;-68
2022/08/15 02:12:00;;;;;;;13.52;4.20;;;12.20;74.30;;;;;;6333311;22;19999;-68
2022/08/15 02:14:27;;;;;;;14.35;4.45;;;12.20;74.60;;;;;;6333888;22;20007;-70
2022/08/15 02:16:54;;;;;;;13.65;3.20;;;12.20;74.90;;;;;;6334249;22;20022;-72
2022/08/15 02:19:21;;;;;;;13.02;3.17;;;12.20;74.90;;;;;;6332917;22;19998;-69
2022/08/15 02:21:48;;;;;;;8.52;4.05;;;12.20;74.40;;;;;;6334686;22;20463;-70
2022/08/15 02:24:19;;;;;;;9.68;2.33;;;12.20;74.20;;;;;;6332591;22;20422;-69
2022/08/15 02:26:46;;;;;;;10.65;2.72;;;12.10;73.60;;;;;;6333402;22;19999;-68
2022/08/15 02:29:13;;;;;;;5.80;2.65;;;12.10;74.10;;;;;;6332881;22;20053;-69
2022/08/15 02:31:40;;;;;;;6.47;2.45;;;12.10;73.40;;;;;;6333971;22;19999;-70
2022/08/15 02:34:07;;;;;;;7.13;3.00;;;12.10;73.30;;;;;;6334203;22;20017;-72
2022/08/15 02:36:35;;;;;;;4.68;2.38;;;12.00;73.20;;;;;;6333457;22;20432;-71
2022/08/15 02:39:07;;;;;;;6.35;2.83;;;12.00;73.20;;;;;;6333384;22;20376;-67
2022/08/15 02:41:48;;;;;;;6.60;3.45;;;12.00;73.20;;;;;;6333193;22;20025;-70
2022/08/15 02:44:16;;;;;;;5.95;2.45;;;12.00;73.20;;;;;;6334079;22;20003;-70
2022/08/15 02:46:43;;;;;;;12.88;1.95;;;12.00;73.30;;;;;;6334811;22;20074;-71
2022/08/15 02:49:12;;;;;;;3.83;1.67;;;12.00;73.30;;;;;;6335147;22;20027;-69
2022/08/15 02:51:41;;;;;;;2.60;1.50;;;12.00;73.20;;;;;;6336382;22;19994;-68
2022/08/15 02:54:10;;;;;;;1.83;0.88;;;12.00;73.00;;;;;;6333931;22;20059;-69
2022/08/15 02:56:38;;;;;;;4.47;1.95;;;11.90;72.80;;;;;;6335729;22;19998;-70
2022/08/15 02:59:07;;;;;;;4.38;1.48;;;11.90;72.70;;;;;;6334211;22;20325;-72
2022/08/15 03:01:40;;;;;;;4.60;1.33;;;11.90;72.40;;;;;;6335848;22;19998;-70
2022/08/15 03:04:09;;;;;;;2.88;0.77;;;11.90;72.40;;;;;;6334796;22;20436;-70
2022/08/15 03:06:37;;;;;;;3.75;1.00;;;11.90;72.20;;;;;;6334544;22;19991;-68
2022/08/15 03:09:07;;;;;;;1.50;0.85;;;11.90;72.20;;;;;;6335300;22;19995;-68
2022/08/15 03:11:38;;;;;;;22.40;1.67;;;11.90;72.10;;;;;;6334372;22;19997;-68
2022/08/15 03:14:07;;;;;;;8.02;0.95;;;11.80;71.70;;;;;;6335333;22;20394;-68
2022/08/15 03:16:43;;;;;;;1.75;0.65;;;11.80;71.80;;;;;;6334518;22;19999;-72
2022/08/15 03:19:12;;;;;;;4.75;1.25;;;11.90;71.80;;;;;;6335388;22;20023;-70
2022/08/15 03:21:39;;;;;;;3.78;0.93;;;11.80;71.50;;;;;;6335167;22;20003;-69
2022/08/15 03:24:06;;;;;;;2.22;1.10;;;11.80;71.60;;;;;;6333652;22;19998;-69
2022/08/15 03:26:34;;;;;;;1.30;0.52;;;11.80;71.50;;;;;;6334574;22;20507;-71
2022/08/15 03:29:01;;;;;;;3.38;1.25;;;11.80;71.40;;;;;;6333852;22;20076;-68
2022/08/15 03:31:27;;;;;;;12.25;1.92;;;11.80;71.20;;;;;;6335764;22;20045;-69
2022/08/15 03:33:54;;;;;;;8.60;1.00;;;11.80;71.30;;;;;;6334361;22;20017;-68
2022/08/15 03:36:23;;;;;;;11.05;1.05;;;11.80;72.80;;;;;;6334561;22;20002;-68
2022/08/15 03:38:50;;;;;;;8.93;1.50;;;11.80;73.40;;;;;;6335040;22;20006;-68
2022/08/15 03:41:16;;;;;;;7.88;1.20;;;11.80;74.20;;;;;;6334838;22;19999;-70
2022/08/15 03:43:44;;;;;;;13.43;0.80;;;11.80;74.50;;;;;;6335766;22;20003;-70
2022/08/15 03:46:18;;;;;;;9.25;0.60;;;11.80;74.70;;;;;;6333542;22;20002;-70
2022/08/15 03:48:50;;;;;;;11.13;1.10;;;11.80;75.60;;;;;;6336171;22;20006;-71
2022/08/15 03:51:18;;;;;;;5.65;0.90;;;11.80;75.20;;;;;;6334534;22;20318;-70
2022/08/15 03:53:48;;;;;;;5.70;0.88;;;11.70;75.10;;;;;;6334784;22;20003;-68
2022/08/15 03:56:19;;;;;;;13.13;1.20;;;11.80;75.30;;;;;;6334479;22;20453;-70
2022/08/15 03:58:47;;;;;;;7.03;0.80;;;11.70;75.40;;;;;;6333327;22;19999;-71
2022/08/15 04:01:18;;;;;;;3.67;0.90;;;11.70;74.20;;;;;;6334353;22;19995;-68
2022/08/15 04:03:49;;;;;;;5.72;0.80;;;11.70;73.30;;;;;;6333896;22;20079;-71
2022/08/15 04:06:19;;;;;;;2.90;0.88;;;11.70;73.10;;;;;;6335487;22;20010;-71
2022/08/15 04:08:47;;;;;;;9.98;0.60;;;11.60;72.90;;;;;;6334435;22;19999;-72
2022/08/15 04:11:16;;;;;;;2.10;1.05;;;11.60;72.60;;;;;;6334208;22;20423;-71
2022/08/15 04:13:44;;;;;;;13.20;2.75;;;11.60;72.80;;;;;;6335041;22;20006;-71
2022/08/15 04:16:11;;;;;;;12.07;8.25;;;11.60;73.50;;;;;;6333535;22;20307;-74
2022/08/15 04:18:38;;;;;;;13.30;4.68;;;11.60;73.10;;;;;;6335771;22;19999;-68
2022/08/15 04:21:44;;;;;;;9.50;1.85;;;11.50;72.30;;;;;;6333830;22;19998;-66
2022/08/15 04:24:50;;;;;;;4.13;0.90;;;11.50;72.30;;;;;;6333978;22;20026;-71
2022/08/15 04:27:56;;;;;;;1.25;0.80;;;11.50;73.50;;;;;;6334623;22;20011;-69
2022/08/15 04:30:27;;;;;;;3.70;0.70;;;11.50;73.40;;;;;;6306427;22;20442;-69
2022/08/15 04:33:36;;;;;;;3.15;0.95;;;11.50;72.80;;;;;;6334269;22;20022;-69
2022/08/15 04:36:36;;;;;;;1.10;0.73;;;11.40;72.00;;;;;;6333895;22;19999;-72
2022/08/15 04:39:42;;;;;;;1.50;1.20;;;11.40;71.70;;;;;;6306262;22;20757;-73
2022/08/15 04:42:48;;;;;;;2.83;0.70;;;11.30;71.40;;;;;;6332957;22;20003;-71
2022/08/15 04:45:52;;;;;;;1.10;0.43;;;11.30;71.30;;;;;;6334984;22;20347;-73
2022/08/15 04:48:20;;;;;;;1.67;0.70;;;11.20;71.50;;;;;;6307755;22;20418;-72
2022/08/15 04:50:49;;;;;;;2.72;0.95;;;11.30;71.50;;;;;;6332798;22;20481;-71
2022/08/15 04:53:18;;;;;;;4.18;0.65;;;11.20;71.40;;;;;;6333850;22;20013;-70
2022/08/15 04:55:47;;;;;;;4.15;1.02;;;11.20;71.50;;;;;;6332750;22;20053;-68
2022/08/15 04:58:15;;;;;;;2.88;1.00;;;11.20;71.60;;;;;;6334143;22;20482;-69
2022/08/15 05:00:50;;;;;;;4.50;0.73;;;11.20;71.60;;;;;;6334243;22;19999;-69
2022/08/15 05:03:19;;;;;;;1.77;0.70;;;11.20;71.80;;;;;;6332341;22;20010;-70
2022/08/15 05:05:51;;;;;;;3.95;1.25;;;11.20;71.90;;;;;;6335045;22;20457;-69
2022/08/15 05:08:19;;;;;;;3.03;1.00;;;11.20;71.90;;;;;;6333477;22;20077;-69
2022/08/15 05:11:08;;;;;;;3.05;1.30;;;11.20;72.00;;;;;;6334889;22;20476;-69
2022/08/15 05:13:37;;;;;;;2.10;1.23;;;11.20;72.00;;;;;;6333957;22;20011;-69
2022/08/15 05:16:07;;;;;;;1.10;0.95;;;11.10;71.90;;;;;;6333403;22;20025;-69
2022/08/15 05:18:36;;;;;;;2.83;0.82;;;11.10;71.90;;;;;;6334916;22;20410;-69
2022/08/15 05:21:03;;;;;;;4.90;1.60;;;11.10;71.80;;;;;;6332754;22;20393;-70
2022/08/15 05:23:30;;;;;;;7.13;1.50;;;11.10;71.90;;;;;;6334186;22;20077;-70
2022/08/15 05:25:59;;;;;;;4.70;1.55;;;11.10;72.10;;;;;;6332839;22;20011;-68
2022/08/15 05:28:27;;;;;;;4.25;1.33;;;11.00;72.70;;;;;;6334812;22;20010;-69
2022/08/15 05:30:55;;;;;;;2.10;0.88;;;11.00;72.10;;;;;;6333677;22;20576;-68
2022/08/15 05:33:28;;;;;;;3.10;1.98;;;11.00;72.00;;;;;;6333737;22;20003;-69
2022/08/15 05:35:58;;;;;;;5.90;1.67;;;11.10;72.00;;;;;;6334364;22;20048;-69
2022/08/15 05:38:30;;;;;;;14.32;2.67;;;11.00;71.70;;;;;;6333181;22;19995;-70
2022/08/15 05:41:14;;;;;;;4.22;1.90;;;11.00;71.90;;;;;;6334288;22;19999;-69
2022/08/15 05:43:50;;;;;;;1.88;1.10;;;11.00;72.70;;;;;;6334380;22;19999;-69
2022/08/15 05:46:33;;;;;;;3.03;1.13;;;11.00;72.60;;;;;;6333675;22;19990;-70
2022/08/15 05:49:17;;;;;;;17.80;1.85;;;11.00;72.50;;;;;;6334530;22;20452;-69
2022/08/15 05:52:09;;;;;;;5.00;1.15;;;11.00;73.70;;;;;;6333095;22;20335;-69
2022/08/15 05:54:54;;;;;;;7.40;1.95;;;11.00;74.10;;;;;;6270359;22;20041;-69
2022/08/15 05:57:40;;;;;;;5.50;1.48;;;11.00;74.50;;;;;;6333772;22;20380;-71
2022/08/15 06:00:46;;;;;;;3.85;1.30;;;11.00;74.70;;;;;;6332617;22;20006;-70
2022/08/15 06:03:59;;;;;;;3.22;2.63;;;11.00;74.80;;;;;;6333644;22;20458;-68
2022/08/15 06:07:05;;;;;;;3.38;1.58;;;11.00;75.30;;;;;;6334702;22;20018;-71
2022/08/15 06:10:14;;;;;;;5.75;2.50;;;11.00;74.80;;;;;;6333695;22;20346;-69
2022/08/15 06:13:00;;;;;;;4.78;1.65;;;11.00;75.10;;;;;;6332622;22;20458;-68
2022/08/15 06:16:06;;;;;;;5.70;1.50;;;11.00;75.20;;;;;;6333677;22;20003;-69
2022/08/15 06:19:12;;;;;;;10.70;1.95;;;11.00;74.90;;;;;;6333270;22;20384;-70
2022/08/15 06:22:17;;;;;;;6.45;2.65;;;11.00;74.80;;;;;;6333869;22;20082;-69
2022/08/15 06:25:29;;;;;;;4.07;0.93;;;11.00;75.40;;;;;;6313640;22;20098;-68
2022/08/15 06:28:08;;;;;;;8.85;1.25;;;11.10;75.70;;;;;;6336062;22;20002;-71
2022/08/15 06:31:03;;;;;;;4.57;1.23;;;11.10;75.40;;;;;;6334463;22;20052;-69
2022/08/15 06:33:58;;;;;;;3.20;1.40;;;11.10;75.30;;;;;;6335338;22;20506;-71
2022/08/15 06:37:05;;;;;;;4.30;1.63;;;11.10;75.30;;;;;;6335584;22;20026;-69
2022/08/15 06:40:03;;;;;;;5.72;1.38;;;11.10;75.20;;;;;;6334260;22;20057;-69
2022/08/15 06:42:59;;;;;;;8.27;1.67;;;11.10;75.20;;;;;;6334825;22;20006;-69
2022/08/15 06:46:05;;;;;;;3.10;1.70;;;11.10;75.20;;;;;;6334483;22;20074;-71
2022/08/15 06:49:11;;;;;;;4.75;2.08;;;11.20;75.40;;;;;;6334693;22;20003;-69
2022/08/15 06:52:17;;;;;;;12.38;3.40;;;11.20;75.90;;;;;;6333897;22;19999;-72
2022/08/15 06:55:23;;;;;;;4.45;2.42;;;11.20;76.40;;;;;;6335625;22;20035;-68
2022/08/15 06:58:09;;;;;;;4.28;2.38;;;11.20;76.90;;;;;;6335528;22;20013;-71
2022/08/15 07:01:05;;;;;;;6.57;2.40;;;11.30;77.30;;;;;;6334093;22;20057;-69
2022/08/15 07:04:20;;;;;;;3.38;2.88;;;11.30;77.70;;;;;;6336259;22;20003;-71
2022/08/15 07:06:54;;;;;;;3.45;2.72;;;11.30;78.00;;;;;;6298390;22;20006;-69
2022/08/15 07:09:53;;;;;;;5.13;2.35;;;11.40;78.20;;;;;;6333836;22;20002;-72
2022/08/15 07:12:40;;;;;;;16.30;3.75;;;11.40;78.40;;;;;;6333970;22;20010;-70
2022/08/15 07:15:29;;;;;;;11.60;3.72;;;11.40;78.80;;;;;;6336347;22;20014;-69
2022/08/15 07:18:34;;;;;;;5.20;2.95;;;11.50;79.30;;;;;;6334286;22;20430;-68
2022/08/15 07:21:43;;;;;;;12.00;4.00;;;11.50;79.30;;;;;;6334684;22;19998;-70
2022/08/15 07:24:39;;;;;;;5.65;2.60;;;11.60;79.90;;;;;;6335775;22;20475;-70
2022/08/15 07:27:48;;;;;;;5.57;2.60;;;11.60;80.20;;;;;;6334253;22;20457;-69
2022/08/15 07:30:34;;;;;;;5.88;3.22;;;11.70;80.20;;;;;;6332844;22;20105;-71
2022/08/15 07:33:46;;;;;;;7.15;2.78;;;11.70;80.20;;;;;;6334817;22;20018;-71
2022/08/15 07:36:58;;;;;;;14.60;3.13;;;11.70;79.90;;;;;;6334155;22;20319;-69
2022/08/15 07:40:07;;;;;;;8.05;3.50;;;11.80;79.70;;;;;;6333838;22;20003;-69
2022/08/15 07:43:13;;;;;;;8.15;2.72;;;11.80;79.60;;;;;;6334225;22;20015;-71
2022/08/15 07:45:41;;;;;;;10.70;3.13;;;11.90;79.20;;;;;;6335443;22;20003;-70
2022/08/15 07:48:22;;;;;;;10.63;3.65;;;12.00;79.00;;;;;;6334468;22;20010;-70
2022/08/15 07:51:15;;;;;;;16.27;4.13;;;12.00;78.70;;;;;;6335569;22;20414;-71
2022/08/15 07:53:53;;;;;;;14.30;4.13;;;12.00;78.50;;;;;;6334683;22;20042;-69
2022/08/15 07:57:00;;;;;;;12.77;4.50;;;12.00;78.30;;;;;;6333866;22;19994;-68
2022/08/15 08:00:08;;;;;;;7.43;4.43;;;12.10;78.50;;;;;;6334704;22;20074;-69
2022/08/15 08:02:54;;;;;;;14.52;4.30;;;12.20;79.70;;;;;;6334972;22;20006;-69
2022/08/15 08:05:58;;;;;;;9.82;5.75;;;12.20;78.90;;;;;;6333906;22;20003;-70
2022/08/15 08:08:51;;;;;;;10.40;4.55;;;12.30;78.80;;;;;;6335185;22;20021;-69
2022/08/15 08:11:39;;;;;;;16.88;4.95;;;12.30;78.70;;;;;;6334491;22;20079;-69
2022/08/15 08:14:43;;;;;;;6.22;4.00;;;12.40;78.70;;;;;;6333578;22;20017;-71
2022/08/15 08:17:31;;;;;;;11.77;4.35;;;12.40;78.50;;;;;;6334058;22;20003;-70
2022/08/15 08:20:05;;;;;;;8.90;3.72;;;12.50;78.40;;;;;;6335269;22;20001;-70
2022/08/15 08:23:06;;;;;;;18.65;4.88;;;12.50;78.00;;;;;;6333826;22;20014;-70
2022/08/15 08:25:51;;;;;;;7.40;3.22;;;12.60;78.00;;;;;;6335279;22;20021;-70
2022/08/15 08:28:48;;;;;;;10.27;4.40;;;12.60;77.90;;;;;;6335773;22;20003;-71
2022/08/15 08:31:26;;;;;;;9.90;3.42;;;12.70;77.80;;;;;;6333555;22;20002;-69
2022/08/15 08:34:21;;;;;;;5.72;2.92;;;12.70;77.80;;;;;;6334996;22;20007;-69
2022/08/15 08:37:09;;;;;;;6.90;2.40;;;12.80;77.80;;;;;;6334173;22;20006;-69
2022/08/15 08:43:16;;;;;;;5.22;2.08;;;12.90;76.30;;;;;;6334892;22;20013;-70
2022/08/15 08:46:05;;;;;;;10.13;3.22;;;13.00;76.00;;;;;;6334707;22;19999;-70
2022/08/15 08:48:55;;;;;;;7.68;2.33;;;13.10;76.30;;;;;;6305087;22;20029;-70
2022/08/15 08:51:39;;;;;;;4.38;1.80;;;13.20;76.80;;;;;;6334979;22;19999;-71
2022/08/15 08:54:26;;;;;;;10.30;2.50;;;13.30;76.50;;;;;;6334003;22;20006;-71
2022/08/15 08:57:32;;;;;;;5.85;2.70;;;13.40;77.00;;;;;;6333463;22;20315;-70
2022/08/15 09:00:42;;;;;;;12.48;2.53;;;13.40;77.00;;;;;;6334806;22;20026;-70
2022/08/15 09:03:51;;;;;;;7.38;2.35;;;13.50;78.00;;;;;;6334860;22;20094;-70
2022/08/15 09:06:57;;;;;;;5.38;2.30;;;13.60;77.50;;;;;;6333598;22;20006;-69
2022/08/15 09:10:05;;;;;;;8.93;2.65;;;13.60;77.50;;;;;;6334043;22;20006;-70
2022/08/15 09:16:25;;;;;;;4.28;2.45;;;13.70;77.60;;;;;;6335196;22;20052;-70
2022/08/15 09:19:46;;;;;;;6.25;3.10;;;13.70;77.60;;;;;;6334077;22;20002;-72
2022/08/15 09:22:52;;;;;;;5.82;2.28;;;13.80;77.50;;;;;;6285506;22;20052;-71
2022/08/15 09:25:53;;;;;;;4.20;2.70;;;13.80;77.50;;;;;;6334457;22;20094;-70
2022/08/15 09:28:59;;;;;;;12.40;3.47;;;13.90;77.80;;;;;;6334348;22;19995;-70
2022/08/15 09:32:10;;;;;;;13.98;2.72;;;14.00;78.00;;;;;;6333225;22;20011;-71
2022/08/15 09:35:30;;;;;;;7.75;2.00;;;14.10;78.20;;;;;;6322625;22;20323;-70
2022/08/15 09:38:22;;;;;;;6.05;2.58;;;14.20;77.90;;;;;;6334457;22;20109;-71
2022/08/15 09:41:26;;;;;;;7.82;2.75;;;14.30;77.40;;;;;;6333119;22;20003;-71
2022/08/15 09:44:35;;;;;;;8.10;3.28;;;14.30;76.90;;;;;;6333881;22;20009;-70
2022/08/15 09:47:24;;;;;;;3.75;2.13;;;14.30;76.30;;;;;;6334061;22;20003;-70
2022/08/15 09:50:03;;;;;;;6.50;2.28;;;14.40;75.90;;;;;;6332509;22;20007;-71
2022/08/15 09:53:21;;;;;;;6.38;1.52;;;14.50;75.30;;;;;;6333792;22;19999;-70
2022/08/15 09:56:27;;;;;;;2.78;0.60;;;14.60;74.70;;;;;;6335034;22;20036;-70
2022/08/15 09:59:17;;;;;;;1.50;0.60;;;14.70;72.50;;;;;;6337166;22;20459;-70
2022/08/15 10:02:21;;;;;;;5.80;0.73;;;14.80;71.00;;;;;;6335180;22;20053;-70
2022/08/15 10:04:57;;;;;;;0.80;0.40;;;14.90;68.00;;;;;;6335990;22;20006;-71
2022/08/15 10:08:01;;;;;;;1.60;0.88;;;14.90;66.60;;;;;;6336208;22;19998;-70
2022/08/15 10:10:34;;;;;;;2.25;0.75;;;15.00;66.80;;;;;;6335206;22;20825;-70
2022/08/15 10:13:48;;;;;;;0.75;0.38;;;15.10;66.50;;;;;;6336106;22;20011;-70
2022/08/15 10:17:12;;;;;;;1.27;0.20;;;15.20;66.30;;;;;;6334616;22;20554;-71
2022/08/15 10:20:19;;;;;;;8.43;0.90;;;15.30;66.00;;;;;;6208759;23;20004;-70
2022/08/15 10:23:00;;;;;;;4.13;0.40;;;15.40;66.00;;;;;;6193986;23;20379;-70
2022/08/15 10:25:49;;;;;;;1.35;0.70;;;15.50;66.00;;;;;;6335126;22;20050;-71
2022/08/15 10:28:59;;;;;;;3.38;0.93;;;15.50;65.60;;;;;;6335159;22;20003;-70
2022/08/15 10:31:50;;;;;;;3.95;0.60;;;15.60;65.10;;;;;;6335215;22;20085;-71
2022/08/15 10:34:56;;;;;;;2.67;0.40;;;15.70;64.30;;;;;;6336150;22;20398;-70
2022/08/15 10:37:53;;;;;;;3.45;0.32;;;15.80;64.20;;;;;;6335850;22;20033;-71
2022/08/15 10:41:08;;;;;;;1.60;0.28;;;15.80;64.30;;;;;;6335538;22;20022;-70
2022/08/15 10:44:16;;;;;;;12.07;1.10;;;15.90;64.00;;;;;;6335851;22;20068;-70
2022/08/15 10:46:45;;;;;;;2.22;0.40;;;16.00;64.00;;;;;;6335318;22;20061;-69
2022/08/15 10:49:46;;;;;;;2.42;0.93;;;16.10;64.60;;;;;;6335100;22;20006;-69
2022/08/15 10:52:51;;;;;;;2.75;0.20;;;16.10;64.30;;;;;;6336224;22;20006;-69
2022/08/15 10:56:03;;;;;;;4.38;0.82;;;16.20;64.70;;;;;;6335933;22;20017;-70
2022/08/15 10:59:09;;;;;;;1.08;0.45;;;16.30;64.60;;;;;;6334601;22;20003;-70
2022/08/15 11:02:22;;;;;;;2.05;0.60;;;16.40;64.10;;;;;;6334751;22;20003;-70
2022/08/15 11:05:28;;;;;;;2.20;2.00;;;16.40;63.20;;;;;;6299055;22;20045;-70
2022/08/15 11:08:36;;;;;;;1.15;0.35;;;16.50;63.40;;;;;;6335627;22;20133;-70
2022/08/15 11:11:42;;;;;;;5.68;0.70;;;16.60;63.60;;;;;;6334889;22;20430;-71
2022/08/15 11:14:51;;;;;;;3.70;0.70;;;16.70;62.30;;;;;;6335644;22;20095;-71
2022/08/15 11:17:57;;;;;;;2.30;0.77;;;16.70;61.50;;;;;;6335547;22;20430;-70
2022/08/15 11:21:03;;;;;;;4.75;0.60;;;16.80;60.80;;;;;;6334615;22;19995;-70
2022/08/15 11:24:15;;;;;;;3.00;0.80;;;16.80;61.20;;;;;;6334579;22;20365;-70
2022/08/15 11:27:08;;;;;;;5.43;0.60;;;16.90;61.10;;;;;;6335577;22;20525;-71
2022/08/15 11:30:14;;;;;;;3.20;0.60;;;16.90;61.50;;;;;;6335923;22;20044;-70
2022/08/15 11:33:19;;;;;;;0.45;0.45;;;17.00;61.00;;;;;;6334556;22;20382;-71
2022/08/15 11:36:25;;;;;;;2.28;1.00;;;17.10;61.00;;;;;;6334899;22;20094;-71
2022/08/15 11:39:34;;;;;;;6.53;0.82;;;17.10;61.40;;;;;;6335227;22;20001;-71
2022/08/15 11:42:42;;;;;;;1.73;0.35;;;17.20;61.10;;;;;;6334406;22;20010;-71
2022/08/15 11:45:53;;;;;;;2.03;0.43;;;17.30;60.40;;;;;;6334055;22;19999;-71
2022/08/15 11:48:59;;;;;;;3.95;0.68;;;17.40;59.80;;;;;;6335828;22;20013;-71
2022/08/15 11:52:09;;;;;;;1.75;0.55;;;17.50;59.20;;;;;;6335223;22;20013;-71
2022/08/15 11:55:30;;;;;;;0.30;0.17;;;17.60;59.40;;;;;;6333352;22;20567;-72
2022/08/15 11:58:44;;;;;;;2.03;0.52;;;17.70;59.10;;;;;;6333648;22;20068;-71
2022/08/15 12:01:40;;;;;;;3.03;0.57;;;17.80;59.00;;;;;;6335223;22;20003;-71
2022/08/15 12:04:08;;;;;;;2.45;0.55;;;17.90;58.70;;;;;;6314398;22;20003;-70
2022/08/15 12:06:41;;;;;;;2.72;0.57;;;17.90;59.30;;;;;;6334239;22;20022;-71
2022/08/15 12:09:22;;;;;;;1.80;0.55;;;17.90;59.30;;;;;;6334447;22;20028;-71
2022/08/15 12:11:51;;;;;;;4.03;0.70;;;18.00;59.30;;;;;;6333795;22;20071;-70
2022/08/15 12:14:24;;;;;;;6.15;0.50;;;18.00;59.30;;;;;;6334720;22;20077;-70
2022/08/15 12:17:04;;;;;;;1.65;0.88;;;18.10;59.40;;;;;;6334680;22;20026;-71
2022/08/15 12:19:37;;;;;;;0.65;0.28;;;18.10;59.30;;;;;;6333544;22;19995;-71
2022/08/15 12:22:13;;;;;;;0.98;0.30;;;18.20;59.40;;;;;;6334427;22;20380;-71
2022/08/15 12:24:46;;;;;;;1.67;0.30;;;18.20;59.10;;;;;;6333980;22;20404;-71
2022/08/15 12:27:13;;;;;;;3.63;1.40;;;18.20;59.60;;;;;;6334299;22;20096;-71
2022/08/15 12:29:40;;;;;;;1.95;1.02;;;18.20;59.30;;;;;;6334072;22;20007;-70
2022/08/15 12:32:10;;;;;;;6.55;1.00;;;18.20;59.20;;;;;;6333987;22;19991;-71
2022/08/15 12:34:48;;;;;;;3.83;0.60;;;18.30;59.50;;;;;;6333227;22;20015;-71
2022/08/15 12:37:23;;;;;;;2.28;0.98;;;18.30;59.50;;;;;;6332971;22;20030;-70
2022/08/15 12:39:56;;;;;;;1.77;0.57;;;18.30;59.00;;;;;;6335173;22;20046;-71
2022/08/15 12:42:25;;;;;;;1.48;0.43;;;18.30;58.40;;;;;;6333649;22;19998;-69
2022/08/15 12:44:53;;;;;;;4.10;0.80;;;18.30;58.00;;;;;;6334741;22;20003;-70
2022/08/15 12:47:21;;;;;;;2.88;1.20;;;18.30;57.40;;;;;;6334334;22;19999;-70
2022/08/15 12:49:49;;;;;;;1.77;1.02;;;18.30;56.70;;;;;;6333582;22;20009;-70
2022/08/15 12:52:19;;;;;;;1.40;0.70;;;18.30;56.30;;;;;;6334643;22;20002;-70
2022/08/15 12:54:48;;;;;;;1.80;1.52;;;18.30;56.20;;;;;;6333254;22;20011;-71
2022/08/15 12:57:15;;;;;;;3.13;0.85;;;18.40;56.10;;;;;;6333602;22;20465;-70
2022/08/15 12:59:41;;;;;;;2.75;1.15;;;18.40;56.20;;;;;;6333352;22;20414;-70
2022/08/15 13:02:11;;;;;;;2.63;0.57;;;18.40;55.90;;;;;;6332330;22;20007;-70
2022/08/15 13:04:41;;;;;;;3.80;0.95;;;18.40;55.90;;;;;;6334920;22;19994;-70
2022/08/15 13:07:08;;;;;;;3.80;0.90;;;18.40;56.30;;;;;;6333406;22;19998;-70
2022/08/15 13:09:34;;;;;;;4.20;0.50;;;18.40;56.30;;;;;;6333508;22;20002;-70
2022/08/15 13:12:01;;;;;;;5.03;1.48;;;18.50;56.50;;;;;;6332722;22;20446;-70
2022/08/15 13:14:29;;;;;;;3.25;1.30;;;18.50;56.70;;;;;;6334468;22;20326;-70
2022/08/15 13:16:56;;;;;;;0.90;0.60;;;18.50;56.70;;;;;;6333441;22;19999;-70
2022/08/15 13:19:30;;;;;;;7.68;0.95;;;18.50;56.70;;;;;;6334383;22;20003;-70
2022/08/15 13:24:42;;;;;;;2.25;0.95;;;18.50;56.30;;;;;;6333449;22;20185;-70
2022/08/15 13:27:09;;;;;;;3.30;0.60;;;18.50;56.10;;;;;;6335232;22;20322;-70
2022/08/15 13:29:39;;;;;;;3.30;0.47;;;18.60;56.50;;;;;;6334207;22;19998;-69
2022/08/15 13:32:07;;;;;;;1.17;1.00;;;18.60;56.80;;;;;;6334443;22;20549;-69
2022/08/15 13:34:36;;;;;;;3.08;0.90;;;18.60;56.20;;;;;;6333620;22;20007;-70
2022/08/15 13:37:03;;;;;;;1.77;0.73;;;18.60;55.90;;;;;;6333609;22;19995;-69
2022/08/15 13:39:37;;;;;;;1.10;0.93;;;18.60;55.80;;;;;;6334089;22;20353;-70
2022/08/15 13:42:04;;;;;;;11.35;0.90;;;18.60;55.50;;;;;;6333108;22;20014;-70
2022/08/15 13:44:31;;;;;;;9.95;1.52;;;18.60;55.80;;;;;;6334269;22;20006;-70
2022/08/15 13:46:59;;;;;;;1.48;0.45;;;18.60;55.70;;;;;;6332640;22;20056;-70
2022/08/15 13:49:26;;;;;;;3.47;0.73;;;18.60;55.90;;;;;;6334971;22;20063;-70
2022/08/15 13:51:56;;;;;;;1.92;0.40;;;18.60;55.50;;;;;;6333914;22;20002;-70
2022/08/15 13:54:25;;;;;;;3.22;0.73;;;18.60;55.00;;;;;;6333259;22;20019;-70
2022/08/15 13:56:52;;;;;;;1.58;0.40;;;18.60;54.90;;;;;;6334380;22;19995;-71
2022/08/15 13:59:20;;;;;;;3.70;1.48;;;18.50;54.90;;;;;;6333062;22;19999;-70
2022/08/15 14:01:50;;;;;;;1.00;0.40;;;18.50;55.00;;;;;;6334044;22;19995;-70
2022/08/15 14:04:36;;;;;;;3.80;0.80;;;18.50;55.10;;;;;;6332900;22;20007;-70
2022/08/15 14:07:05;;;;;;;2.42;1.20;;;18.50;55.70;;;;;;6333466;22;20003;-70
2022/08/15 14:09:32;;;;;;;8.10;1.63;;;18.50;56.20;;;;;;6334068;22;19995;-70
2022/08/15 14:12:00;;;;;;;5.70;1.20;;;18.40;56.40;;;;;;6330929;22;20066;-72
2022/08/15 14:14:26;;;;;;;11.73;1.30;;;18.40;56.90;;;;;;6333536;22;20029;-72
2022/08/15 14:16:54;;;;;;;15.25;1.42;;;18.40;57.30;;;;;;6331931;22;20003;-72